sensor_id;sensor_type;location;lat;lon;timestamp;pressure;altitude;pressure_sealevel;temperature;humidity
34658;BME280;20865;43.312;27.152;2023-12-20T00:01:09;100821.73;;;8.66;42.82
34658;BME280;20865;43.312;27.152;2023-12-20T00:06:59;100821.27;;;8.67;43.35
34658;BME280;20865;43.312;27.152;2023-12-20T00:09:28;100818.64;;;8.65;43.13
34658;BME280;20865;43.312;27.152;2023-12-20T00:11:56;100815.56;;;8.61;43.20
34658;BME280;20865;43.312;27.152;2023-12-20T00:14:23;100813.81;;;8.60;43.31
34658;BME280;20865;43.312;27.152;2023-12-20T00:16:51;100814.72;;;8.59;43.49
34658;BME280;20865;43.312;27.152;2023-12-20T00:19:18;100815.19;;;8.57;43.15
34658;BME280;20865;43.312;27.152;2023-12-20T00:21:46;100809.31;;;8.65;42.64
34658;BME280;20865;43.312;27.152;2023-12-20T00:24:14;100806.28;;;8.59;42.91
34658;BME280;20865;43.312;27.152;2023-12-20T00:26:41;100807.27;;;8.52;43.23
34658;BME280;20865;43.312;27.152;2023-12-20T00:29:09;100803.73;;;8.52;43.17
34658;BME280;20865;43.312;27.152;2023-12-20T00:31:36;100802.85;;;8.50;43.09
34658;BME280;20865;43.312;27.152;2023-12-20T00:34:04;100799.31;;;8.51;42.98
34658;BME280;20865;43.312;27.152;2023-12-20T00:36:31;100799.31;;;8.49;42.94
34658;BME280;20865;43.312;27.152;2023-12-20T00:38:59;100792.27;;;8.45;42.94
34658;BME280;20865;43.312;27.152;2023-12-20T00:41:26;100793.64;;;8.42;42.69
34658;BME280;20865;43.312;27.152;2023-12-20T00:43:54;100794.55;;;8.40;42.66
34658;BME280;20865;43.312;27.152;2023-12-20T00:46:22;100798.12;;;8.35;42.99
34658;BME280;20865;43.312;27.152;2023-12-20T00:48:49;100793.69;;;8.36;42.99
34658;BME280;20865;43.312;27.152;2023-12-20T00:51:17;100791.51;;;8.34;42.91
34658;BME280;20865;43.312;27.152;2023-12-20T00:53:44;100788.39;;;8.33;43.09
34658;BME280;20865;43.312;27.152;2023-12-20T00:56:13;100783.56;;;8.31;42.91
34658;BME280;20865;43.312;27.152;2023-12-20T00:58:41;100784.89;;;8.31;42.93
34658;BME280;20865;43.312;27.152;2023-12-20T01:01:08;100775.99;;;8.32;43.14
34658;BME280;20865;43.312;27.152;2023-12-20T01:03:36;100769.80;;;8.31;43.11
34658;BME280;20865;43.312;27.152;2023-12-20T01:06:04;100772.48;;;8.30;43.26
34658;BME280;20865;43.312;27.152;2023-12-20T01:08:31;100768.08;;;8.27;43.25
34658;BME280;20865;43.312;27.152;2023-12-20T01:11:03;100761.91;;;8.24;43.23
34658;BME280;20865;43.312;27.152;2023-12-20T01:13:31;100763.59;;;8.29;43.15
34658;BME280;20865;43.312;27.152;2023-12-20T01:15:59;100756.94;;;8.29;42.96
34658;BME280;20865;43.312;27.152;2023-12-20T01:18:26;100751.61;;;8.29;42.94
34658;BME280;20865;43.312;27.152;2023-12-20T01:20:54;100745.87;;;8.28;42.86
34658;BME280;20865;43.312;27.152;2023-12-20T01:23:21;100739.70;;;8.26;42.90
34658;BME280;20865;43.312;27.152;2023-12-20T01:25:49;100737.92;;;8.25;43.04
34658;BME280;20865;43.312;27.152;2023-12-20T01:28:17;100726.86;;;8.23;43.03
34658;BME280;20865;43.312;27.152;2023-12-20T01:30:44;100728.15;;;8.27;42.79
34658;BME280;20865;43.312;27.152;2023-12-20T01:33:12;100726.02;;;8.19;43.02
34658;BME280;20865;43.312;27.152;2023-12-20T01:35:39;100719.40;;;8.18;42.91
34658;BME280;20865;43.312;27.152;2023-12-20T01:38:07;100718.41;;;8.25;42.66
34658;BME280;20865;43.312;27.152;2023-12-20T01:40:34;100710.95;;;8.18;42.65
34658;BME280;20865;43.312;27.152;2023-12-20T01:43:06;100709.28;;;8.13;42.54
34658;BME280;20865;43.312;27.152;2023-12-20T01:45:33;100696.47;;;8.07;42.10
34658;BME280;20865;43.312;27.152;2023-12-20T01:48:01;100689.36;;;8.09;42.18
34658;BME280;20865;43.312;27.152;2023-12-20T01:50:31;100694.72;;;8.06;42.30
34658;BME280;20865;43.312;27.152;2023-12-20T01:53:02;100688.11;;;8.03;42.22
34658;BME280;20865;43.312;27.152;2023-12-20T01:55:33;100689.47;;;8.00;42.29
34658;BME280;20865;43.312;27.152;2023-12-20T01:58:01;100683.73;;;7.99;42.30
34658;BME280;20865;43.312;27.152;2023-12-20T02:00:30;100680.20;;;7.99;42.40
34658;BME280;20865;43.312;27.152;2023-12-20T02:03:00;100679.32;;;7.97;42.74
34658;BME280;20865;43.312;27.152;2023-12-20T02:05:30;100666.48;;;7.95;42.43
34658;BME280;20865;43.312;27.152;2023-12-20T02:07:58;100660.28;;;7.94;42.77
34658;BME280;20865;43.312;27.152;2023-12-20T02:10:26;100661.16;;;7.95;42.82
34658;BME280;20865;43.312;27.152;2023-12-20T02:12:55;100654.54;;;7.93;42.70
34658;BME280;20865;43.312;27.152;2023-12-20T02:15:25;100647.02;;;7.93;42.72
34658;BME280;20865;43.312;27.152;2023-12-20T02:17:52;100649.67;;;7.93;42.73
34658;BME280;20865;43.312;27.152;2023-12-20T02:20:20;100642.60;;;7.92;42.87
34658;BME280;20865;43.312;27.152;2023-12-20T02:22:48;100641.27;;;7.92;42.78
34658;BME280;20865;43.312;27.152;2023-12-20T02:25:16;100633.78;;;7.88;42.41
34658;BME280;20865;43.312;27.152;2023-12-20T02:27:43;100636.48;;;7.85;42.09
34658;BME280;20865;43.312;27.152;2023-12-20T02:30:11;100624.97;;;7.83;41.95
34658;BME280;20865;43.312;27.152;2023-12-20T02:32:38;100625.50;;;7.78;41.99
34658;BME280;20865;43.312;27.152;2023-12-20T02:35:06;100622.88;;;7.73;41.90
34658;BME280;20865;43.312;27.152;2023-12-20T02:37:34;100615.42;;;7.67;41.57
34658;BME280;20865;43.312;27.152;2023-12-20T02:40:02;100615.95;;;7.60;41.73
34658;BME280;20865;43.312;27.152;2023-12-20T02:42:30;100608.92;;;7.56;42.11
34658;BME280;20865;43.312;27.152;2023-12-20T02:44:58;100612.03;;;7.55;42.27
34658;BME280;20865;43.312;27.152;2023-12-20T02:47:26;100612.06;;;7.52;42.42
34658;BME280;20865;43.312;27.152;2023-12-20T02:49:53;100608.53;;;7.52;42.54
34658;BME280;20865;43.312;27.152;2023-12-20T02:52:21;100606.75;;;7.54;42.72
34658;BME280;20865;43.312;27.152;2023-12-20T02:54:49;100605.84;;;7.55;42.94
34658;BME280;20865;43.312;27.152;2023-12-20T02:57:17;100603.18;;;7.55;42.65
34658;BME280;20865;43.312;27.152;2023-12-20T02:59:44;100600.10;;;7.54;42.68
34658;BME280;20865;43.312;27.152;2023-12-20T03:02:12;100596.16;;;7.49;42.92
34658;BME280;20865;43.312;27.152;2023-12-20T03:04:40;100600.59;;;7.50;43.05
34658;BME280;20865;43.312;27.152;2023-12-20T03:07:07;100601.05;;;7.48;42.75
34658;BME280;20865;43.312;27.152;2023-12-20T03:09:35;100604.61;;;7.47;42.30
34658;BME280;20865;43.312;27.152;2023-12-20T03:12:03;100603.73;;;7.45;41.96
34658;BME280;20865;43.312;27.152;2023-12-20T03:14:31;100598.45;;;7.44;41.69
34658;BME280;20865;43.312;27.152;2023-12-20T03:16:58;100598.95;;;7.40;41.79
34658;BME280;20865;43.312;27.152;2023-12-20T03:19:26;100588.77;;;7.38;41.74
34658;BME280;20865;43.312;27.152;2023-12-20T03:21:54;100585.69;;;7.35;41.87
34658;BME280;20865;43.312;27.152;2023-12-20T03:24:21;100582.61;;;7.34;42.14
34658;BME280;20865;43.312;27.152;2023-12-20T03:26:49;100581.77;;;7.31;42.14
34658;BME280;20865;43.312;27.152;2023-12-20T03:29:16;100574.28;;;7.29;42.16
34658;BME280;20865;43.312;27.152;2023-12-20T03:31:44;100577.36;;;7.28;42.13
34658;BME280;20865;43.312;27.152;2023-12-20T03:34:12;100568.97;;;7.29;42.30
34658;BME280;20865;43.312;27.152;2023-12-20T03:36:39;100568.09;;;7.27;42.26
34658;BME280;20865;43.312;27.152;2023-12-20T03:39:07;100567.64;;;7.27;42.47
34658;BME280;20865;43.312;27.152;2023-12-20T03:41:36;100565.02;;;7.26;42.41
34658;BME280;20865;43.312;27.152;2023-12-20T03:44:04;100561.94;;;7.22;42.12
34658;BME280;20865;43.312;27.152;2023-12-20T03:46:32;100558.89;;;7.19;41.85
34658;BME280;20865;43.312;27.152;2023-12-20T03:48:59;100555.39;;;7.14;41.89
34658;BME280;20865;43.312;27.152;2023-12-20T03:51:27;100547.00;;;7.13;42.18
34658;BME280;20865;43.312;27.152;2023-12-20T03:53:54;100550.08;;;7.14;42.41
34658;BME280;20865;43.312;27.152;2023-12-20T03:56:22;100544.77;;;7.15;42.76
34658;BME280;20865;43.312;27.152;2023-12-20T03:58:49;100545.18;;;7.16;43.05
34658;BME280;20865;43.312;27.152;2023-12-20T04:01:17;100538.96;;;7.19;42.97
34658;BME280;20865;43.312;27.152;2023-12-20T04:03:44;100541.13;;;7.21;43.16
34658;BME280;20865;43.312;27.152;2023-12-20T04:06:17;100527.88;;;7.20;42.52
34658;BME280;20865;43.312;27.152;2023-12-20T04:08:44;100525.67;;;7.19;42.42
34658;BME280;20865;43.312;27.152;2023-12-20T04:11:12;100530.12;;;7.17;42.33
34658;BME280;20865;43.312;27.152;2023-12-20T04:13:39;100529.69;;;7.14;42.09
34658;BME280;20865;43.312;27.152;2023-12-20T04:16:07;100531.09;;;7.11;41.98
34658;BME280;20865;43.312;27.152;2023-12-20T04:18:37;100520.92;;;7.09;41.99
34658;BME280;20865;43.312;27.152;2023-12-20T04:21:04;100530.67;;;7.07;41.86
34658;BME280;20865;43.312;27.152;2023-12-20T04:23:33;100528.08;;;7.04;42.10
34658;BME280;20865;43.312;27.152;2023-12-20T04:26:00;100519.66;;;7.03;42.34
34658;BME280;20865;43.312;27.152;2023-12-20T04:28:28;100511.69;;;7.03;42.21
34658;BME280;20865;43.312;27.152;2023-12-20T04:30:57;100511.30;;;6.99;42.44
34658;BME280;20865;43.312;27.152;2023-12-20T04:33:24;100513.50;;;7.00;42.42
34658;BME280;20865;43.312;27.152;2023-12-20T04:35:52;100510.84;;;7.00;42.44
34658;BME280;20865;43.312;27.152;2023-12-20T04:38:20;100509.97;;;6.99;42.64
34658;BME280;20865;43.312;27.152;2023-12-20T04:40:47;100509.55;;;6.98;42.98
34658;BME280;20865;43.312;27.152;2023-12-20T04:43:15;100515.25;;;7.01;42.94
34658;BME280;20865;43.312;27.152;2023-12-20T04:45:42;100514.80;;;7.03;43.19
34658;BME280;20865;43.312;27.152;2023-12-20T04:48:10;100506.83;;;7.04;43.03
34658;BME280;20865;43.312;27.152;2023-12-20T04:50:37;100496.62;;;7.05;43.15
34658;BME280;20865;43.312;27.152;2023-12-20T04:53:05;100509.00;;;7.06;43.02
34658;BME280;20865;43.312;27.152;2023-12-20T04:55:32;100509.00;;;7.06;43.08
34658;BME280;20865;43.312;27.152;2023-12-20T04:58:00;100502.39;;;7.05;42.30
34658;BME280;20865;43.312;27.152;2023-12-20T05:00:27;100507.25;;;7.04;41.99
34658;BME280;20865;43.312;27.152;2023-12-20T05:02:56;100503.78;;;6.97;42.13
34658;BME280;20865;43.312;27.152;2023-12-20T05:05:24;100495.39;;;6.96;42.02
34658;BME280;20865;43.312;27.152;2023-12-20T05:07:51;100493.70;;;6.89;42.28
34658;BME280;20865;43.312;27.152;2023-12-20T05:10:19;100493.67;;;6.92;42.02
34658;BME280;20865;43.312;27.152;2023-12-20T05:12:46;100493.26;;;6.89;42.28
34658;BME280;20865;43.312;27.152;2023-12-20T05:15:14;100494.16;;;6.88;42.31
34658;BME280;20865;43.312;27.152;2023-12-20T05:17:42;100493.80;;;6.81;42.03
34658;BME280;20865;43.312;27.152;2023-12-20T05:20:10;100496.95;;;6.78;42.02
34658;BME280;20865;43.312;27.152;2023-12-20T05:22:38;100491.25;;;6.74;42.04
34658;BME280;20865;43.312;27.152;2023-12-20T05:25:06;100486.80;;;6.74;41.72
34658;BME280;20865;43.312;27.152;2023-12-20T05:27:34;100491.24;;;6.72;41.60
34658;BME280;20865;43.312;27.152;2023-12-20T05:30:01;100494.38;;;6.68;41.86
34658;BME280;20865;43.312;27.152;2023-12-20T05:32:30;100486.90;;;6.65;42.02
34658;BME280;20865;43.312;27.152;2023-12-20T05:34:58;100485.61;;;6.63;42.45
34658;BME280;20865;43.312;27.152;2023-12-20T05:37:25;100482.05;;;6.64;42.54
34658;BME280;20865;43.312;27.152;2023-12-20T05:39:53;100483.38;;;6.64;42.24
34658;BME280;20865;43.312;27.152;2023-12-20T05:42:20;100474.95;;;6.66;42.29
34658;BME280;20865;43.312;27.152;2023-12-20T05:44:48;100486.02;;;6.64;42.16
34658;BME280;20865;43.312;27.152;2023-12-20T05:47:15;100482.08;;;6.61;42.10
34658;BME280;20865;43.312;27.152;2023-12-20T05:49:44;100487.38;;;6.61;42.00
34658;BME280;20865;43.312;27.152;2023-12-20T05:52:14;100480.33;;;6.60;41.84
34658;BME280;20865;43.312;27.152;2023-12-20T05:54:41;100481.26;;;6.56;41.94
34658;BME280;20865;43.312;27.152;2023-12-20T05:57:09;100482.13;;;6.57;41.91
34658;BME280;20865;43.312;27.152;2023-12-20T05:59:36;100476.41;;;6.54;41.94
34658;BME280;20865;43.312;27.152;2023-12-20T06:02:04;100479.94;;;6.56;41.96
34658;BME280;20865;43.312;27.152;2023-12-20T06:04:32;100483.91;;;6.56;42.02
34658;BME280;20865;43.312;27.152;2023-12-20T06:07:00;100475.95;;;6.56;42.04
34658;BME280;20865;43.312;27.152;2023-12-20T06:09:28;100484.75;;;6.58;42.19
34658;BME280;20865;43.312;27.152;2023-12-20T06:11:55;100484.31;;;6.60;42.39
34658;BME280;20865;43.312;27.152;2023-12-20T06:14:23;100476.80;;;6.58;42.48
34658;BME280;20865;43.312;27.152;2023-12-20T06:16:50;100478.09;;;6.61;42.62
34658;BME280;20865;43.312;27.152;2023-12-20T06:19:18;100479.81;;;6.67;42.73
34658;BME280;20865;43.312;27.152;2023-12-20T06:21:46;100477.97;;;6.74;42.64
34658;BME280;20865;43.312;27.152;2023-12-20T06:24:14;100477.06;;;6.75;42.76
34658;BME280;20865;43.312;27.152;2023-12-20T06:26:41;100477.87;;;6.81;43.11
34658;BME280;20865;43.312;27.152;2023-12-20T06:29:09;100480.95;;;6.84;43.30
34658;BME280;20865;43.312;27.152;2023-12-20T06:31:36;100474.28;;;6.87;43.21
34658;BME280;20865;43.312;27.152;2023-12-20T06:34:04;100477.73;;;6.92;42.82
34658;BME280;20865;43.312;27.152;2023-12-20T06:36:31;100473.12;;;7.06;42.69
34658;BME280;20865;43.312;27.152;2023-12-20T06:38:59;100469.34;;;7.24;42.62
34658;BME280;20865;43.312;27.152;2023-12-20T06:41:27;100459.19;;;7.52;42.09
34658;BME280;20865;43.312;27.152;2023-12-20T06:43:55;100453.03;;;7.79;41.96
34658;BME280;20865;43.312;27.152;2023-12-20T06:46:23;100460.05;;;8.08;41.61
34658;BME280;20865;43.312;27.152;2023-12-20T06:48:50;100455.56;;;8.36;41.19
34658;BME280;20865;43.312;27.152;2023-12-20T06:51:18;100452.88;;;8.63;41.00
34658;BME280;20865;43.312;27.152;2023-12-20T06:53:46;100455.05;;;8.88;40.74
34658;BME280;20865;43.312;27.152;2023-12-20T06:56:14;100454.00;;;9.16;40.21
34658;BME280;20865;43.312;27.152;2023-12-20T06:58:42;100446.78;;;9.40;39.90
34658;BME280;20865;43.312;27.152;2023-12-20T07:01:14;100452.88;;;9.65;39.74
34658;BME280;20865;43.312;27.152;2023-12-20T07:03:42;100452.41;;;9.85;39.04
34658;BME280;20865;43.312;27.152;2023-12-20T07:06:10;100447.45;;;10.05;38.76
34658;BME280;20865;43.312;27.152;2023-12-20T07:08:37;100436.70;;;10.24;38.63
34658;BME280;20865;43.312;27.152;2023-12-20T07:11:05;100439.58;;;10.35;38.38
34658;BME280;20865;43.312;27.152;2023-12-20T07:13:32;100426.20;;;10.36;38.42
34658;BME280;20865;43.312;27.152;2023-12-20T07:16:00;100418.29;;;10.32;38.32
34658;BME280;20865;43.312;27.152;2023-12-20T07:18:27;100416.39;;;10.19;38.57
34658;BME280;20865;43.312;27.152;2023-12-20T07:20:55;100418.62;;;10.01;38.96
34658;BME280;20865;43.312;27.152;2023-12-20T07:23:23;100417.03;;;9.94;39.46
34658;BME280;20865;43.312;27.152;2023-12-20T07:25:52;100411.72;;;9.93;39.92
34658;BME280;20865;43.312;27.152;2023-12-20T07:28:19;100406.64;;;10.00;40.21
34658;BME280;20865;43.312;27.152;2023-12-20T07:30:47;100408.73;;;10.21;40.30
34658;BME280;20865;43.312;27.152;2023-12-20T07:33:14;100409.98;;;10.42;40.08
34658;BME280;20865;43.312;27.152;2023-12-20T07:35:42;100403.63;;;10.63;39.84
34658;BME280;20865;43.312;27.152;2023-12-20T07:38:11;100402.91;;;10.87;39.68
34658;BME280;20865;43.312;27.152;2023-12-20T07:40:39;100399.80;;;11.03;39.59
34658;BME280;20865;43.312;27.152;2023-12-20T07:43:06;100388.77;;;11.13;39.61
34658;BME280;20865;43.312;27.152;2023-12-20T07:45:34;100384.11;;;11.20;39.57
34658;BME280;20865;43.312;27.152;2023-12-20T07:48:01;100383.80;;;11.16;39.60
34658;BME280;20865;43.312;27.152;2023-12-20T07:50:29;100386.74;;;11.07;39.78
34658;BME280;20865;43.312;27.152;2023-12-20T07:52:56;100381.32;;;10.95;40.23
34658;BME280;20865;43.312;27.152;2023-12-20T07:55:26;100382.66;;;10.95;40.60
34658;BME280;20865;43.312;27.152;2023-12-20T07:57:53;100374.89;;;11.01;40.89
34658;BME280;20865;43.312;27.152;2023-12-20T08:00:21;100375.00;;;11.12;40.81
34658;BME280;20865;43.312;27.152;2023-12-20T08:02:48;100376.40;;;11.24;40.84
34658;BME280;20865;43.312;27.152;2023-12-20T08:05:16;100370.08;;;11.40;41.01
34658;BME280;20865;43.312;27.152;2023-12-20T08:07:43;100373.77;;;11.51;41.12
34658;BME280;20865;43.312;27.152;2023-12-20T08:10:11;100373.25;;;11.66;40.98
34658;BME280;20865;43.312;27.152;2023-12-20T08:12:39;100360.18;;;11.70;41.25
34658;BME280;20865;43.312;27.152;2023-12-20T08:15:07;100360.18;;;11.70;41.19
34658;BME280;20865;43.312;27.152;2023-12-20T08:17:35;100355.39;;;11.66;41.44
34658;BME280;20865;43.312;27.152;2023-12-20T08:20:03;100355.49;;;11.63;41.71
34658;BME280;20865;43.312;27.152;2023-12-20T08:22:31;100355.39;;;11.66;41.77
34658;BME280;20865;43.312;27.152;2023-12-20T08:24:58;100344.28;;;11.65;42.10
34658;BME280;20865;43.312;27.152;2023-12-20T08:27:26;100345.56;;;11.67;42.46
34658;BME280;20865;43.312;27.152;2023-12-20T08:29:53;100336.45;;;11.73;42.64
34658;BME280;20865;43.312;27.152;2023-12-20T08:32:21;100330.64;;;11.73;43.00
34658;BME280;20865;43.312;27.152;2023-12-20T08:34:49;100323.95;;;11.73;43.29
34658;BME280;20865;43.312;27.152;2023-12-20T08:37:17;100317.95;;;11.78;43.56
34658;BME280;20865;43.312;27.152;2023-12-20T08:39:44;100313.16;;;11.89;43.91
34658;BME280;20865;43.312;27.152;2023-12-20T08:42:12;100312.78;;;12.00;44.10
34658;BME280;20865;43.312;27.152;2023-12-20T08:44:40;100298.60;;;12.10;44.24
34658;BME280;20865;43.312;27.152;2023-12-20T08:47:07;100298.06;;;12.24;44.17
34658;BME280;20865;43.312;27.152;2023-12-20T08:49:36;100293.68;;;12.34;44.33
34658;BME280;20865;43.312;27.152;2023-12-20T08:52:05;100289.66;;;12.46;44.50
34658;BME280;20865;43.312;27.152;2023-12-20T08:54:33;100278.16;;;12.54;44.53
34658;BME280;20865;43.312;27.152;2023-12-20T08:57:00;100269.89;;;12.60;44.68
34658;BME280;20865;43.312;27.152;2023-12-20T08:59:28;100275.14;;;12.63;44.71
34658;BME280;20865;43.312;27.152;2023-12-20T09:01:56;100270.63;;;12.76;44.91
34658;BME280;20865;43.312;27.152;2023-12-20T09:04:23;100261.00;;;12.82;44.78
34658;BME280;20865;43.312;27.152;2023-12-20T09:06:51;100266.77;;;12.83;44.67
34658;BME280;20865;43.312;27.152;2023-12-20T09:09:18;100248.75;;;12.86;44.59
34658;BME280;20865;43.312;27.152;2023-12-20T09:11:46;100245.39;;;12.81;44.72
34658;BME280;20865;43.312;27.152;2023-12-20T09:14:15;100237.58;;;12.87;44.58
34658;BME280;20865;43.312;27.152;2023-12-20T09:16:43;100232.89;;;12.92;44.56
34658;BME280;20865;43.312;27.152;2023-12-20T09:19:10;100233.25;;;12.95;44.47
34658;BME280;20865;43.312;27.152;2023-12-20T09:21:38;100226.81;;;12.99;44.48
34658;BME280;20865;43.312;27.152;2023-12-20T09:24:05;100217.58;;;13.06;44.49
34658;BME280;20865;43.312;27.152;2023-12-20T09:26:33;100215.29;;;13.07;44.55
34658;BME280;20865;43.312;27.152;2023-12-20T09:29:01;100211.27;;;13.07;44.44
34658;BME280;20865;43.312;27.152;2023-12-20T09:31:28;100205.78;;;13.10;44.52
34658;BME280;20865;43.312;27.152;2023-12-20T09:33:56;100197.22;;;13.12;44.48
34658;BME280;20865;43.312;27.152;2023-12-20T09:36:23;100190.86;;;13.15;44.49
34658;BME280;20865;43.312;27.152;2023-12-20T09:38:51;100185.55;;;13.23;44.45
34658;BME280;20865;43.312;27.152;2023-12-20T09:41:20;100189.36;;;13.29;44.77
34658;BME280;20865;43.312;27.152;2023-12-20T09:43:49;100186.20;;;13.40;45.08
34658;BME280;20865;43.312;27.152;2023-12-20T09:46:20;100176.47;;;13.58;45.38
34658;BME280;20865;43.312;27.152;2023-12-20T09:48:48;100159.13;;;13.86;45.13
34658;BME280;20865;43.312;27.152;2023-12-20T09:51:16;100154.33;;;14.02;45.08
34658;BME280;20865;43.312;27.152;2023-12-20T09:53:44;100162.36;;;14.13;44.73
34658;BME280;20865;43.312;27.152;2023-12-20T09:56:14;100153.56;;;14.28;44.28
34658;BME280;20865;43.312;27.152;2023-12-20T09:58:42;100151.54;;;14.33;44.23
34658;BME280;20865;43.312;27.152;2023-12-20T10:01:10;100151.32;;;14.46;43.84
34658;BME280;20865;43.312;27.152;2023-12-20T10:03:39;100144.20;;;14.56;43.86
34658;BME280;20865;43.312;27.152;2023-12-20T10:06:09;100134.41;;;14.63;43.72
34658;BME280;20865;43.312;27.152;2023-12-20T10:08:38;100130.70;;;14.74;43.52
34658;BME280;20865;43.312;27.152;2023-12-20T10:11:06;100126.52;;;14.77;43.95
34658;BME280;20865;43.312;27.152;2023-12-20T10:13:33;100120.45;;;14.91;43.64
34658;BME280;20865;43.312;27.152;2023-12-20T10:16:01;100121.27;;;15.11;43.76
34658;BME280;20865;43.312;27.152;2023-12-20T10:18:29;100115.46;;;15.27;43.17
34658;BME280;20865;43.312;27.152;2023-12-20T10:20:57;100111.95;;;15.51;42.83
34658;BME280;20865;43.312;27.152;2023-12-20T10:23:25;100097.84;;;15.63;42.49
34658;BME280;20865;43.312;27.152;2023-12-20T10:25:57;100090.95;;;15.75;42.47
34658;BME280;20865;43.312;27.152;2023-12-20T10:28:26;100082.91;;;15.91;42.60
34658;BME280;20865;43.312;27.152;2023-12-20T10:30:56;100072.38;;;16.11;42.20
34658;BME280;20865;43.312;27.152;2023-12-20T10:33:29;100072.48;;;16.16;41.79
34658;BME280;20865;43.312;27.152;2023-12-20T10:35:58;100059.80;;;16.18;41.33
34658;BME280;20865;43.312;27.152;2023-12-20T10:38:26;100061.91;;;16.20;41.43
34658;BME280;20865;43.312;27.152;2023-12-20T10:40:57;100063.84;;;16.18;41.98
34658;BME280;20865;43.312;27.152;2023-12-20T10:43:29;100057.39;;;16.37;42.16
34658;BME280;20865;43.312;27.152;2023-12-20T10:45:58;100059.98;;;16.54;42.16
34658;BME280;20865;43.312;27.152;2023-12-20T10:48:27;100046.37;;;16.72;42.02
34658;BME280;20865;43.312;27.152;2023-12-20T10:50:58;100031.42;;;16.89;41.53
34658;BME280;20865;43.312;27.152;2023-12-20T10:53:26;100024.34;;;17.09;41.10
34658;BME280;20865;43.312;27.152;2023-12-20T10:55:55;100024.24;;;17.25;40.89
34658;BME280;20865;43.312;27.152;2023-12-20T10:58:24;100023.87;;;17.38;39.81
34658;BME280;20865;43.312;27.152;2023-12-20T11:00:59;100023.98;;;17.51;39.90
34658;BME280;20865;43.312;27.152;2023-12-20T11:03:24;100009.98;;;17.66;40.14
34658;BME280;20865;43.312;27.152;2023-12-20T11:06:03;100004.77;;;17.84;40.30
34658;BME280;20865;43.312;27.152;2023-12-20T11:08:36;99994.58;;;18.02;40.09
34658;BME280;20865;43.312;27.152;2023-12-20T11:11:07;99997.67;;;18.11;39.46
34658;BME280;20865;43.312;27.152;2023-12-20T11:13:52;99991.87;;;18.17;39.10
34658;BME280;20865;43.312;27.152;2023-12-20T11:16:12;99980.05;;;18.25;38.99
34658;BME280;20865;43.312;27.152;2023-12-20T11:18:41;99984.59;;;18.24;39.11
34658;BME280;20865;43.312;27.152;2023-12-20T11:21:08;99976.16;;;18.29;39.61
34658;BME280;20865;43.312;27.152;2023-12-20T11:23:38;99976.91;;;18.38;39.29
34658;BME280;20865;43.312;27.152;2023-12-20T11:26:05;99974.66;;;18.45;39.63
34658;BME280;20865;43.312;27.152;2023-12-20T11:28:33;99971.05;;;18.51;39.49
34658;BME280;20865;43.312;27.152;2023-12-20T11:31:02;99964.02;;;18.62;39.32
34658;BME280;20865;43.312;27.152;2023-12-20T11:33:38;99960.39;;;18.75;39.43
34658;BME280;20865;43.312;27.152;2023-12-20T11:36:14;99954.63;;;18.87;38.42
34658;BME280;20865;43.312;27.152;2023-12-20T11:38:56;99952.25;;;18.95;37.74
34658;BME280;20865;43.312;27.152;2023-12-20T11:41:24;99947.85;;;19.00;37.77
34658;BME280;20865;43.312;27.152;2023-12-20T11:43:56;99945.98;;;19.08;37.44
34658;BME280;20865;43.312;27.152;2023-12-20T11:46:23;99944.29;;;19.12;36.41
34658;BME280;20865;43.312;27.152;2023-12-20T11:48:51;99929.83;;;19.19;35.98
34658;BME280;20865;43.312;27.152;2023-12-20T11:51:18;99925.92;;;19.23;35.47
34658;BME280;20865;43.312;27.152;2023-12-20T11:53:51;99914.94;;;19.19;35.00
34658;BME280;20865;43.312;27.152;2023-12-20T11:56:16;99900.76;;;19.15;34.25
34658;BME280;20865;43.312;27.152;2023-12-20T11:58:44;99894.36;;;19.16;34.31
34658;BME280;20865;43.312;27.152;2023-12-20T12:01:13;99902.76;;;19.19;36.38
34658;BME280;20865;43.312;27.152;2023-12-20T12:03:40;99891.71;;;19.22;36.72
34658;BME280;20865;43.312;27.152;2023-12-20T12:06:09;99891.24;;;19.28;37.05
34658;BME280;20865;43.312;27.152;2023-12-20T12:08:37;99886.59;;;19.30;36.19
34658;BME280;20865;43.312;27.152;2023-12-20T12:11:04;99878.52;;;19.36;36.32
34658;BME280;20865;43.312;27.152;2023-12-20T12:13:34;99824.95;;;19.15;33.10
34658;BME280;20865;43.312;27.152;2023-12-20T12:16:01;99868.34;;;19.45;32.90
34658;BME280;20865;43.312;27.152;2023-12-20T12:18:29;99862.34;;;19.47;31.78
34658;BME280;20865;43.312;27.152;2023-12-20T12:21:01;99863.20;;;19.47;32.27
34658;BME280;20865;43.312;27.152;2023-12-20T12:23:29;99862.76;;;19.54;31.00
34658;BME280;20865;43.312;27.152;2023-12-20T12:25:56;99857.78;;;19.47;30.91
34658;BME280;20865;43.312;27.152;2023-12-20T12:28:26;99854.07;;;19.43;31.28
34658;BME280;20865;43.312;27.152;2023-12-20T12:31:00;99844.96;;;19.44;30.70
34658;BME280;20865;43.312;27.152;2023-12-20T12:33:29;99839.67;;;19.42;31.11
34658;BME280;20865;43.312;27.152;2023-12-20T12:35:57;99839.55;;;19.44;32.13
34658;BME280;20865;43.312;27.152;2023-12-20T12:38:25;99835.70;;;19.41;31.27
34658;BME280;20865;43.312;27.152;2023-12-20T12:40:54;99831.55;;;19.42;31.90
34658;BME280;20865;43.312;27.152;2023-12-20T12:43:21;99828.34;;;19.43;31.67
34658;BME280;20865;43.312;27.152;2023-12-20T12:45:49;99823.42;;;19.42;31.22
34658;BME280;20865;43.312;27.152;2023-12-20T12:48:17;99816.25;;;19.41;30.95
34658;BME280;20865;43.312;27.152;2023-12-20T12:50:46;99808.17;;;19.47;31.36
34658;BME280;20865;43.312;27.152;2023-12-20T12:53:13;99806.18;;;19.43;31.93
34658;BME280;20865;43.312;27.152;2023-12-20T12:55:41;99805.81;;;19.42;32.15